Terminal Aerodrome Forecast
Issued by NWS Lake Charles, LA

Home | Current Version | Previous Version | Text Only | Print | Product List | Glossary On
Versions: 1 2 3 4 5 6 7 8 9 10 11 12 13 14 15 16 17 18 19 20 21 22 23 24 25 26 27 28 29 30 31 32 33 34 35 36 37 38 39 40 41 42 43 44 45 46 47 48 49 50
013
FTUS44 KLCH 101901 AAA
TAFLFT
TAF AMD
KLFT 101901Z 1019/1118 02016G31KT P6SM VCSH OVC013
      TEMPO 1019/1023 2SM SHRA OVC009
     FM110000 02015G30KT P6SM OVC010
      TEMPO 1100/1101 4SM -SHRA OVC009
     FM110100 03015G30KT P6SM OVC020
      TEMPO 1101/1104 4SM -SHRA OVC015
     FM110400 03012G26KT P6SM OVC012 PROB30 1104/1105 4SM -SHRA
      OVC009
     FM111400 03010G21KT P6SM SCT040=

USA.gov is the U.S. government's official web portal to all federal, state and local government web resources and services.